Time;durP1;ratioP1;P1;durP2;ratioP2;P2;SDS_P1;SDS_P2;PMS_P1;PMS_P2;Temp;Humidity;BMP_temperature;BMP_pressure;BME280_temperature;BME280_humidity;BME280_pressure;Samples;Min_cycle;Max_cycle;Signal;HPM_P1;HPM_P2
2021/01/06 00:00:56;;;;;;;12.38;5.97;;;4.30;99.90;;;;;;4924251;29;20056;-69
2021/01/06 00:03:24;;;;;;;9.75;5.28;;;4.30;99.90;;;;;;4925151;29;20495;-67
2021/01/06 00:05:57;;;;;;;11.17;5.47;;;4.30;99.90;;;;;;4925725;29;20048;-67
2021/01/06 00:08:24;;;;;;;10.00;4.60;;;4.30;99.90;;;;;;4924127;29;20641;-67
2021/01/06 00:10:57;;;;;;;10.25;5.15;;;4.30;99.90;;;;;;4927855;29;20408;-70
2021/01/06 00:13:24;;;;;;;9.70;5.10;;;4.30;99.90;;;;;;4927697;29;20039;-68
2021/01/06 00:15:51;;;;;;;11.98;5.18;;;4.30;99.90;;;;;;4926612;29;20499;-66
2021/01/06 00:18:19;;;;;;;10.00;5.43;;;4.30;99.90;;;;;;4928650;29;20062;-67
2021/01/06 00:20:45;;;;;;;13.07;6.07;;;4.30;99.90;;;;;;4924591;29;20052;-66
2021/01/06 00:23:12;;;;;;;11.38;5.65;;;4.20;99.90;;;;;;4925080;29;20058;-67
2021/01/06 00:25:43;;;;;;;8.82;4.93;;;4.20;99.90;;;;;;4924749;29;20118;-67
2021/01/06 00:28:14;;;;;;;9.45;4.82;;;4.20;99.90;;;;;;4928754;29;20491;-67
2021/01/06 00:30:45;;;;;;;10.02;5.25;;;4.20;99.90;;;;;;4926914;29;20107;-67
2021/01/06 00:33:24;;;;;;;9.23;5.00;;;4.20;99.90;;;;;;4926561;29;20536;-69
2021/01/06 00:35:55;;;;;;;11.18;5.70;;;4.20;99.90;;;;;;4921276;29;20040;-66
2021/01/06 00:38:25;;;;;;;11.75;5.85;;;4.20;99.90;;;;;;4927500;29;20051;-67
2021/01/06 00:40:51;;;;;;;9.63;5.30;;;4.20;99.90;;;;;;4919454;29;20151;-67
2021/01/06 00:43:18;;;;;;;10.98;5.45;;;4.20;99.90;;;;;;4920604;29;20067;-66
2021/01/06 00:45:44;;;;;;;10.32;6.07;;;4.20;99.90;;;;;;4926821;29;20071;-67
2021/01/06 00:48:11;;;;;;;9.00;5.18;;;4.20;99.90;;;;;;4931702;29;20043;-67
2021/01/06 00:50:40;;;;;;;11.55;5.03;;;4.20;99.90;;;;;;4921627;29;20048;-67
2021/01/06 00:53:11;;;;;;;10.68;5.03;;;4.20;99.90;;;;;;4922167;29;20464;-67
2021/01/06 00:55:37;;;;;;;10.48;5.68;;;4.10;99.90;;;;;;4930704;29;20048;-67
2021/01/06 00:58:04;;;;;;;8.93;5.43;;;4.10;99.90;;;;;;4925232;29;20051;-67
2021/01/06 01:00:30;;;;;;;9.13;5.38;;;4.10;99.90;;;;;;4925930;29;20044;-67
2021/01/06 01:02:57;;;;;;;10.10;5.47;;;4.10;99.90;;;;;;4919492;29;20127;-66
2021/01/06 01:05:29;;;;;;;12.10;5.85;;;4.10;99.90;;;;;;4922494;29;20134;-68
2021/01/06 01:07:57;;;;;;;10.98;5.40;;;4.10;99.90;;;;;;4924562;29;20051;-67
2021/01/06 01:10:35;;;;;;;10.70;5.78;;;4.10;99.90;;;;;;4924159;29;20210;-67
2021/01/06 01:13:05;;;;;;;9.85;5.25;;;4.10;99.90;;;;;;4921314;29;20507;-67
2021/01/06 01:15:35;;;;;;;8.98;4.90;;;4.10;99.90;;;;;;4925344;29;20086;-67
2021/01/06 01:18:03;;;;;;;9.38;5.03;;;4.10;99.90;;;;;;4928028;29;20052;-67
2021/01/06 01:20:33;;;;;;;8.68;4.72;;;4.10;99.90;;;;;;4923632;29;20418;-67
2021/01/06 01:22:59;;;;;;;10.02;5.65;;;4.10;99.90;;;;;;4927198;29;20388;-67
2021/01/06 01:25:27;;;;;;;10.57;4.80;;;4.10;99.90;;;;;;4926997;29;20135;-68
2021/01/06 01:27:54;;;;;;;8.00;5.18;;;4.10;99.90;;;;;;4931295;29;20415;-68
2021/01/06 01:30:25;;;;;;;9.73;4.82;;;4.10;99.90;;;;;;4927894;29;20047;-67
2021/01/06 01:32:54;;;;;;;8.38;4.65;;;4.10;99.90;;;;;;4925944;29;20155;-68
2021/01/06 01:35:23;;;;;;;9.65;5.25;;;4.10;99.90;;;;;;4927586;29;20087;-66
2021/01/06 01:37:50;;;;;;;8.65;4.55;;;4.10;99.90;;;;;;4926332;29;20050;-67
2021/01/06 01:40:24;;;;;;;9.15;5.18;;;4.10;99.90;;;;;;4924003;29;20055;-67
2021/01/06 01:42:57;;;;;;;10.90;5.72;;;4.10;99.90;;;;;;4926711;29;20040;-68
2021/01/06 01:45:46;;;;;;;8.25;4.35;;;4.10;99.90;;;;;;4928245;29;20048;-66
2021/01/06 01:48:32;;;;;;;7.80;4.10;;;4.10;99.90;;;;;;4933405;29;20044;-67
2021/01/06 01:51:06;;;;;;;8.00;4.43;;;4.10;99.90;;;;;;4927754;29;20073;-66
2021/01/06 01:53:41;;;;;;;7.72;4.28;;;4.10;99.90;;;;;;4930841;29;20090;-67
2021/01/06 01:56:11;;;;;;;6.53;3.92;;;4.10;99.90;;;;;;4923018;29;20048;-67
2021/01/06 01:58:41;;;;;;;9.88;6.10;;;4.10;99.90;;;;;;4927524;29;20535;-67
2021/01/06 02:01:09;;;;;;;8.07;4.35;;;4.10;99.90;;;;;;4918850;29;20062;-69
2021/01/06 02:03:52;;;;;;;9.00;4.88;;;4.10;99.90;;;;;;4925110;29;20154;-67
2021/01/06 02:06:41;;;;;;;9.30;4.63;;;4.00;99.90;;;;;;4947295;29;20444;-67
2021/01/06 02:09:29;;;;;;;7.88;3.83;;;4.00;99.90;;;;;;4921562;29;20054;-67
2021/01/06 02:12:26;;;;;;;7.03;4.32;;;4.00;99.90;;;;;;4920866;29;20576;-68
2021/01/06 02:15:10;;;;;;;7.03;3.83;;;4.10;99.90;;;;;;4890891;29;20551;-67
2021/01/06 02:17:37;;;;;;;7.95;3.97;;;4.00;99.90;;;;;;4927629;29;20066;-67
2021/01/06 02:20:13;;;;;;;7.78;4.13;;;4.00;99.90;;;;;;4922491;29;20054;-67
2021/01/06 02:22:39;;;;;;;7.75;4.78;;;4.00;99.90;;;;;;4926381;29;20044;-67
2021/01/06 02:25:06;;;;;;;7.10;4.15;;;4.00;99.90;;;;;;4922623;29;20360;-67
2021/01/06 02:27:33;;;;;;;8.23;4.20;;;4.00;99.90;;;;;;4928072;29;20105;-68
2021/01/06 02:29:59;;;;;;;7.10;4.32;;;4.00;99.90;;;;;;4922414;29;20120;-67
2021/01/06 02:32:25;;;;;;;9.52;4.35;;;4.00;99.90;;;;;;4927843;29;20036;-68
2021/01/06 02:34:51;;;;;;;7.20;3.92;;;3.90;99.90;;;;;;4925328;29;20040;-67
2021/01/06 02:37:18;;;;;;;7.18;3.92;;;3.90;99.90;;;;;;4922655;29;20477;-66
2021/01/06 02:39:44;;;;;;;8.40;4.85;;;3.90;99.90;;;;;;4922549;29;20050;-67
2021/01/06 02:42:11;;;;;;;7.35;4.35;;;3.90;99.90;;;;;;4921744;29;20055;-67
2021/01/06 02:44:37;;;;;;;6.70;4.18;;;3.90;99.90;;;;;;4922573;29;20039;-68
2021/01/06 02:47:03;;;;;;;7.10;4.68;;;3.90;99.90;;;;;;4925162;29;20043;-67
2021/01/06 02:49:30;;;;;;;6.50;4.15;;;3.80;99.90;;;;;;4924169;29;20079;-66
2021/01/06 02:52:24;;;;;;;8.70;4.30;;;3.80;99.90;;;;;;4928384;29;20084;-67
2021/01/06 02:54:52;;;;;;;7.20;4.03;;;3.80;99.90;;;;;;4922636;29;20227;-67
2021/01/06 02:57:22;;;;;;;7.03;3.78;;;3.80;99.90;;;;;;4927082;29;20052;-69
2021/01/06 02:59:49;;;;;;;7.22;4.00;;;3.80;99.90;;;;;;4928225;29;20052;-67
2021/01/06 03:02:21;;;;;;;8.32;4.40;;;3.80;99.90;;;;;;4937031;29;20096;-67
2021/01/06 03:05:13;;;;;;;8.73;4.60;;;3.80;99.90;;;;;;4929269;29;20048;-67
2021/01/06 03:07:41;;;;;;;8.63;4.32;;;3.80;99.90;;;;;;4932793;29;20048;-68
2021/01/06 03:10:09;;;;;;;8.63;4.43;;;3.70;99.90;;;;;;4925934;29;20048;-67
2021/01/06 03:12:38;;;;;;;9.25;4.55;;;3.70;99.90;;;;;;4929202;29;20452;-67
2021/01/06 03:15:05;;;;;;;7.50;4.32;;;3.70;99.90;;;;;;4927838;29;20050;-67
2021/01/06 03:17:32;;;;;;;7.38;3.95;;;3.70;99.90;;;;;;4927671;29;20142;-67
2021/01/06 03:20:05;;;;;;;6.40;3.85;;;3.60;99.90;;;;;;4927277;29;20120;-66
2021/01/06 03:22:35;;;;;;;8.25;4.05;;;3.60;99.90;;;;;;4926962;29;20051;-67
2021/01/06 03:25:09;;;;;;;6.57;3.97;;;3.60;99.90;;;;;;4924436;29;20067;-68
2021/01/06 03:27:36;;;;;;;7.35;4.25;;;3.60;99.90;;;;;;4934242;29;20135;-66
2021/01/06 03:30:07;;;;;;;7.50;3.95;;;3.60;99.90;;;;;;4927902;29;20048;-68
2021/01/06 03:33:00;;;;;;;8.27;4.10;;;3.60;99.90;;;;;;4926799;29;20439;-67
2021/01/06 03:35:42;;;;;;;6.93;3.85;;;3.60;99.90;;;;;;4924784;29;20086;-67
2021/01/06 03:38:27;;;;;;;7.32;3.90;;;3.60;99.90;;;;;;4925831;29;20139;-67
2021/01/06 03:40:55;;;;;;;7.55;3.55;;;3.50;99.90;;;;;;4930147;29;20087;-67
2021/01/06 03:43:26;;;;;;;7.18;4.40;;;3.50;99.90;;;;;;4924677;29;20052;-67
2021/01/06 03:45:57;;;;;;;9.10;4.57;;;3.50;99.90;;;;;;4927639;29;20527;-67
2021/01/06 03:48:48;;;;;;;7.90;4.63;;;3.50;99.90;;;;;;4933213;29;20083;-66
2021/01/06 03:51:33;;;;;;;7.72;4.20;;;3.50;99.90;;;;;;4924654;29;20500;-67
2021/01/06 03:54:11;;;;;;;8.85;4.20;;;3.50;99.90;;;;;;4922579;29;20052;-67
2021/01/06 03:56:39;;;;;;;7.28;4.00;;;3.50;99.90;;;;;;4926600;29;20099;-67
2021/01/06 03:59:18;;;;;;;8.52;4.65;;;3.50;99.90;;;;;;4923204;29;20084;-68
2021/01/06 04:02:04;;;;;;;8.30;4.35;;;3.40;99.90;;;;;;4925476;29;20044;-67
2021/01/06 04:04:43;;;;;;;8.73;4.40;;;3.40;99.90;;;;;;4923578;29;20131;-68
2021/01/06 04:07:34;;;;;;;8.25;4.07;;;3.40;99.90;;;;;;4924472;29;20081;-66
2021/01/06 04:10:17;;;;;;;6.90;3.70;;;3.40;99.90;;;;;;4921869;29;20056;-67
2021/01/06 04:12:43;;;;;;;5.85;3.40;;;3.40;99.90;;;;;;4923801;29;20048;-67
2021/01/06 04:15:14;;;;;;;7.18;3.80;;;3.40;99.90;;;;;;4929435;29;20387;-67
2021/01/06 04:17:49;;;;;;;6.72;3.53;;;3.40;99.90;;;;;;4927387;29;20044;-67
2021/01/06 04:20:28;;;;;;;6.22;3.53;;;3.40;99.90;;;;;;4928381;29;20091;-66
2021/01/06 04:22:59;;;;;;;7.60;3.92;;;3.40;99.90;;;;;;4929654;29;20091;-68
2021/01/06 04:25:35;;;;;;;6.22;3.53;;;3.40;99.90;;;;;;4928140;29;20076;-68
2021/01/06 04:28:15;;;;;;;7.25;4.13;;;3.40;99.90;;;;;;4923865;29;20107;-66
2021/01/06 04:30:48;;;;;;;7.22;3.97;;;3.40;99.90;;;;;;4921684;29;20141;-68
2021/01/06 04:33:27;;;;;;;7.25;3.33;;;3.40;99.90;;;;;;4929388;29;20051;-66
2021/01/06 04:35:54;;;;;;;;;;;3.40;99.90;;;;;;4920397;29;20138;-67
2021/01/06 04:38:31;;;;;;;5.80;3.28;;;3.40;99.90;;;;;;4929284;29;19979;-67
2021/01/06 04:41:02;;;;;;;6.70;3.53;;;3.40;99.90;;;;;;4918138;29;20514;-68
2021/01/06 04:43:49;;;;;;;6.40;3.47;;;3.40;99.90;;;;;;4925162;29;20219;-68
2021/01/06 04:46:49;;;;;;;6.32;3.55;;;3.40;99.90;;;;;;4925264;29;20044;-71
2021/01/06 04:49:27;;;;;;;;;;;3.40;99.90;;;;;;4903488;29;20047;-68
2021/01/06 04:52:20;;;;;;;6.07;3.25;;;3.40;99.90;;;;;;4923789;29;19941;-67
2021/01/06 04:55:34;;;;;;;7.50;3.60;;;3.40;99.90;;;;;;4924466;29;20079;-67
2021/01/06 04:58:26;;;;;;;7.45;3.80;;;3.40;99.90;;;;;;4918947;29;20087;-68
2021/01/06 05:01:05;;;;;;;6.90;3.67;;;3.40;99.90;;;;;;4927611;29;20059;-67
2021/01/06 05:03:57;;;;;;;7.05;3.55;;;3.30;99.90;;;;;;4926169;29;20094;-67
2021/01/06 05:06:34;;;;;;;7.15;3.53;;;3.30;99.90;;;;;;4924143;29;20487;-68
2021/01/06 05:09:21;;;;;;;7.07;3.80;;;3.30;99.90;;;;;;4926194;29;20054;-66
2021/01/06 05:12:09;;;;;;;7.25;3.10;;;3.30;99.90;;;;;;4923442;29;20134;-67
2021/01/06 05:14:56;;;;;;;7.23;3.73;;;3.30;99.90;;;;;;4924558;29;20063;-67
2021/01/06 05:17:22;;;;;;;6.53;3.08;;;3.30;99.90;;;;;;4921342;29;20152;-67
2021/01/06 05:19:50;;;;;;;7.25;3.88;;;3.40;99.90;;;;;;4917719;29;20048;-67
2021/01/06 05:22:18;;;;;;;7.75;3.60;;;3.40;99.90;;;;;;4947650;29;20040;-66
2021/01/06 05:24:50;;;;;;;7.40;3.88;;;3.40;99.90;;;;;;4924326;29;20048;-68
2021/01/06 05:27:22;;;;;;;6.53;3.47;;;3.40;99.90;;;;;;4922198;29;20414;-67
2021/01/06 05:29:50;;;;;;;6.70;3.55;;;3.40;99.90;;;;;;4924043;29;20099;-68
2021/01/06 05:32:39;;;;;;;8.10;4.13;;;3.40;99.90;;;;;;4926737;29;20135;-66
2021/01/06 05:35:05;;;;;;;6.40;3.42;;;3.40;99.90;;;;;;4911598;29;20060;-67
2021/01/06 05:37:36;;;;;;;7.05;3.38;;;3.40;99.90;;;;;;4906566;29;20486;-67
2021/01/06 05:40:11;;;;;;;6.65;3.53;;;3.40;99.90;;;;;;4897202;29;20167;-66
2021/01/06 05:42:53;;;;;;;7.32;3.50;;;3.40;99.90;;;;;;4905615;29;20075;-66
2021/01/06 05:45:25;;;;;;;8.18;3.70;;;3.40;99.90;;;;;;4899316;29;20044;-68
2021/01/06 05:47:57;;;;;;;6.65;3.70;;;3.40;99.90;;;;;;4907261;29;20135;-66
2021/01/06 05:50:38;;;;;;;7.35;4.32;;;3.30;99.90;;;;;;4909791;29;20059;-67
2021/01/06 05:53:38;;;;;;;5.28;3.10;;;3.30;99.90;;;;;;4911579;29;20059;-67
2021/01/06 05:56:29;;;;;;;6.82;3.60;;;3.30;99.90;;;;;;4907456;29;20610;-67
2021/01/06 05:59:12;;;;;;;5.78;3.10;;;3.30;99.90;;;;;;4908876;29;20044;-67
2021/01/06 06:02:07;;;;;;;6.10;3.30;;;3.30;99.90;;;;;;4907540;29;20053;-68
2021/01/06 06:05:03;;;;;;;6.07;3.10;;;3.30;99.90;;;;;;4902435;29;20050;-66
2021/01/06 06:08:07;;;;;;;5.65;2.72;;;3.30;99.90;;;;;;4901331;29;20047;-67
2021/01/06 06:10:52;;;;;;;5.50;3.05;;;3.30;99.90;;;;;;4899351;29;20058;-68
2021/01/06 06:13:56;;;;;;;9.13;3.78;;;3.30;99.90;;;;;;4912129;29;20465;-67
2021/01/06 06:16:39;;;;;;;5.32;2.70;;;3.30;99.90;;;;;;4902272;29;20064;-66
2021/01/06 06:19:24;;;;;;;5.53;2.90;;;3.30;99.90;;;;;;4914986;29;20060;-67
2021/01/06 06:22:19;;;;;;;6.05;3.30;;;3.30;99.90;;;;;;4901647;29;20045;-68
2021/01/06 06:24:54;;;;;;;6.80;3.50;;;3.30;99.90;;;;;;4906084;29;20505;-67
2021/01/06 06:27:20;;;;;;;7.03;3.13;;;3.30;99.90;;;;;;4919744;29;20076;-67
2021/01/06 06:30:10;;;;;;;5.45;3.17;;;3.30;99.90;;;;;;4911429;29;20044;-67
2021/01/06 06:32:42;;;;;;;5.32;2.95;;;3.30;99.90;;;;;;4890651;29;20056;-67
2021/01/06 06:35:24;;;;;;;5.40;2.78;;;3.30;99.90;;;;;;4924013;29;20055;-67
2021/01/06 06:38:03;;;;;;;5.85;2.97;;;3.30;99.90;;;;;;4926004;29;20052;-67
2021/01/06 06:41:05;;;;;;;6.05;3.08;;;3.40;99.90;;;;;;4923079;29;20048;-68
2021/01/06 06:43:46;;;;;;;6.60;3.25;;;3.30;99.90;;;;;;4930012;29;20135;-67
2021/01/06 06:46:26;;;;;;;6.75;3.55;;;3.30;99.90;;;;;;4923384;29;20135;-67
2021/01/06 06:49:10;;;;;;;7.00;3.13;;;3.30;99.90;;;;;;4924678;29;20048;-67
2021/01/06 06:52:18;;;;;;;7.07;3.60;;;3.30;99.90;;;;;;4922103;29;20048;-68
2021/01/06 06:55:24;;;;;;;6.22;3.00;;;3.20;99.90;;;;;;4878058;29;20148;-66
2021/01/06 06:58:06;;;;;;;6.47;3.30;;;3.20;99.90;;;;;;4878828;29;20045;-67
2021/01/06 07:00:37;;;;;;;5.10;2.58;;;3.20;99.90;;;;;;4923398;29;20044;-68
2021/01/06 07:03:05;;;;;;;5.65;3.13;;;3.20;99.90;;;;;;4936132;29;20057;-66
2021/01/06 07:05:56;;;;;;;5.90;3.17;;;3.20;99.90;;;;;;4926295;29;20467;-67
2021/01/06 07:08:35;;;;;;;5.63;2.97;;;3.20;99.90;;;;;;4930066;29;20048;-66
2021/01/06 07:11:25;;;;;;;5.18;2.85;;;3.20;99.90;;;;;;4927069;29;20083;-67
2021/01/06 07:14:23;;;;;;;5.47;3.03;;;3.20;99.90;;;;;;4925668;29;20358;-67
2021/01/06 07:16:53;;;;;;;6.75;2.90;;;3.20;99.90;;;;;;4929402;29;20056;-66
2021/01/06 07:19:43;;;;;;;5.75;3.00;;;3.20;99.90;;;;;;4931090;29;20103;-67
2021/01/06 07:22:27;;;;;;;4.82;2.85;;;3.20;99.90;;;;;;4930018;29;20054;-67
2021/01/06 07:24:58;;;;;;;5.53;2.60;;;3.20;99.90;;;;;;4927576;29;20048;-67
2021/01/06 07:27:29;;;;;;;5.95;2.88;;;3.20;99.90;;;;;;4926522;29;20044;-67
2021/01/06 07:29:56;;;;;;;6.20;3.15;;;3.20;99.90;;;;;;4930781;29;20122;-68
2021/01/06 07:32:40;;;;;;;7.10;3.80;;;3.20;99.90;;;;;;4930167;29;20165;-67
2021/01/06 07:35:23;;;;;;;6.63;3.20;;;3.20;99.90;;;;;;4934522;29;20307;-66
2021/01/06 07:38:02;;;;;;;4.60;2.70;;;3.20;99.90;;;;;;4932143;29;20415;-68
2021/01/06 07:40:40;;;;;;;5.95;2.80;;;3.20;99.90;;;;;;4925717;29;20460;-68
2021/01/06 07:43:06;;;;;;;5.38;3.28;;;3.20;99.90;;;;;;4951036;28;20061;-68
2021/01/06 07:45:59;;;;;;;5.10;2.72;;;3.20;99.90;;;;;;4928489;29;20058;-67
2021/01/06 07:48:40;;;;;;;5.55;2.83;;;3.20;99.90;;;;;;4931081;29;20044;-67
2021/01/06 07:51:11;;;;;;;5.07;2.80;;;3.20;99.90;;;;;;4930233;29;20142;-67
2021/01/06 07:54:10;;;;;;;5.82;3.05;;;3.20;99.90;;;;;;4932210;29;20502;-67
2021/01/06 07:56:46;;;;;;;7.32;3.35;;;3.20;99.90;;;;;;4928837;29;20115;-67
2021/01/06 07:59:20;;;;;;;4.90;2.67;;;3.20;99.90;;;;;;4932056;29;20073;-67
2021/01/06 08:02:09;;;;;;;4.90;3.08;;;3.20;99.90;;;;;;4933176;29;20214;-67
2021/01/06 08:04:56;;;;;;;5.80;3.00;;;3.20;99.90;;;;;;4931798;29;20039;-67
2021/01/06 08:07:27;;;;;;;7.55;3.58;;;3.20;99.90;;;;;;4936124;29;20061;-67
2021/01/06 08:09:54;;;;;;;6.60;3.70;;;3.20;99.90;;;;;;4932427;29;20126;-67
2021/01/06 08:12:41;;;;;;;5.75;2.90;;;3.20;99.90;;;;;;4931664;29;20126;-67
2021/01/06 08:15:28;;;;;;;5.38;2.90;;;3.20;99.90;;;;;;4934645;29;20061;-68
2021/01/06 08:18:21;;;;;;;5.80;2.83;;;3.30;99.90;;;;;;4933825;29;20138;-67
2021/01/06 08:20:50;;;;;;;6.35;2.88;;;3.30;99.90;;;;;;4933246;29;20048;-68
2021/01/06 08:23:28;;;;;;;4.65;2.58;;;3.30;99.90;;;;;;4932133;29;20058;-67
2021/01/06 08:26:02;;;;;;;5.25;2.50;;;3.30;99.90;;;;;;4929654;29;20047;-67
2021/01/06 08:28:30;;;;;;;4.95;2.80;;;3.30;99.90;;;;;;4930147;29;20075;-67
2021/01/06 08:31:09;;;;;;;5.80;2.85;;;3.30;99.90;;;;;;4932013;29;20147;-67
2021/01/06 08:33:52;;;;;;;5.80;3.10;;;3.40;99.90;;;;;;4931083;29;20101;-67
2021/01/06 08:36:41;;;;;;;5.72;2.80;;;3.40;99.90;;;;;;4931800;29;20043;-67
2021/01/06 08:39:21;;;;;;;4.90;2.60;;;3.40;99.90;;;;;;4929727;29;20460;-67
2021/01/06 08:41:47;;;;;;;;;;;3.40;99.90;;;;;;4929018;29;20624;-66
2021/01/06 08:44:44;;;;;;;5.53;2.63;;;3.40;99.90;;;;;;4926169;29;19922;-67
2021/01/06 08:47:25;;;;;;;5.85;2.85;;;3.40;99.90;;;;;;4918609;29;20155;-68
2021/01/06 08:49:51;;;;;;;5.93;2.97;;;3.40;99.90;;;;;;4930025;29;20139;-66
2021/01/06 08:52:22;;;;;;;6.90;3.70;;;3.40;99.90;;;;;;4927198;29;20051;-67
2021/01/06 08:55:17;;;;;;;6.30;3.50;;;3.50;99.90;;;;;;4931687;29;20047;-67
2021/01/06 08:57:43;;;;;;;6.30;3.20;;;3.50;99.90;;;;;;4919161;29;20048;-67
2021/01/06 09:00:28;;;;;;;6.20;3.08;;;3.50;99.90;;;;;;4922437;29;20051;-66
2021/01/06 09:03:01;;;;;;;6.93;3.40;;;3.50;99.90;;;;;;4919711;29;20067;-66
2021/01/06 09:05:50;;;;;;;7.07;3.55;;;3.50;99.90;;;;;;4917298;29;20143;-66
2021/01/06 09:08:25;;;;;;;5.22;3.00;;;3.50;99.90;;;;;;4919284;29;20044;-67
2021/01/06 09:11:18;;;;;;;7.15;3.17;;;3.60;99.90;;;;;;4919418;29;20062;-68
2021/01/06 09:14:00;;;;;;;5.88;3.08;;;3.60;99.90;;;;;;4921171;29;20051;-66
2021/01/06 09:16:48;;;;;;;7.35;3.25;;;3.70;99.90;;;;;;4917805;29;20103;-66
2021/01/06 09:19:25;;;;;;;6.43;3.33;;;3.70;99.90;;;;;;4917366;29;20420;-67
2021/01/06 09:21:53;;;;;;;6.38;3.35;;;3.70;99.90;;;;;;4917172;29;20063;-66
2021/01/06 09:24:31;;;;;;;7.38;3.33;;;3.70;99.90;;;;;;4917660;29;20131;-67
2021/01/06 09:27:28;;;;;;;6.45;3.03;;;3.80;99.90;;;;;;4919652;29;20052;-67
2021/01/06 09:29:56;;;;;;;6.28;3.40;;;3.80;99.90;;;;;;4914713;29;20051;-66
2021/01/06 09:32:28;;;;;;;5.60;3.15;;;3.80;99.90;;;;;;4918655;29;20503;-71
2021/01/06 09:35:00;;;;;;;7.47;3.67;;;3.80;99.90;;;;;;4917284;29;20419;-67
2021/01/06 09:37:32;;;;;;;6.70;3.38;;;3.80;99.90;;;;;;4917337;29;20048;-67
2021/01/06 09:40:16;;;;;;;6.72;3.65;;;3.80;99.90;;;;;;4918962;29;20116;-66
2021/01/06 09:42:43;;;;;;;7.07;2.95;;;3.90;99.90;;;;;;4917265;29;20444;-67
2021/01/06 09:45:19;;;;;;;6.37;3.00;;;3.90;99.90;;;;;;4915692;29;20126;-67
2021/01/06 09:47:47;;;;;;;6.00;3.05;;;3.90;99.90;;;;;;4915660;29;20086;-67
2021/01/06 09:50:22;;;;;;;6.45;3.70;;;4.00;99.90;;;;;;4917408;29;20127;-67
2021/01/06 09:52:52;;;;;;;6.75;3.55;;;4.00;99.90;;;;;;4916547;29;20074;-66
2021/01/06 09:55:21;;;;;;;6.68;3.45;;;4.00;99.90;;;;;;4914872;29;20098;-67
2021/01/06 09:58:27;;;;;;;6.50;3.30;;;4.00;99.90;;;;;;4917303;29;20052;-68
2021/01/06 10:01:11;;;;;;;6.40;3.42;;;4.00;99.90;;;;;;4936273;28;20098;-68
2021/01/06 10:03:41;;;;;;;7.25;3.28;;;4.00;99.90;;;;;;4919519;29;20665;-66
2021/01/06 10:06:18;;;;;;;6.25;3.75;;;4.10;99.90;;;;;;4918293;29;20299;-67
2021/01/06 10:09:00;;;;;;;5.75;3.30;;;4.10;99.90;;;;;;4918662;29;20062;-68
2021/01/06 10:12:04;;;;;;;5.65;3.17;;;4.10;99.90;;;;;;4917481;29;20104;-68
2021/01/06 10:14:50;;;;;;;5.85;3.13;;;4.10;99.90;;;;;;4916564;29;20052;-67
2021/01/06 10:17:27;;;;;;;6.72;3.53;;;4.10;99.90;;;;;;4918841;29;20082;-67
2021/01/06 10:20:27;;;;;;;5.55;3.25;;;4.00;99.90;;;;;;4916816;29;20142;-67
2021/01/06 10:22:57;;;;;;;4.88;2.83;;;4.00;99.90;;;;;;4917120;29;20425;-67
2021/01/06 10:25:43;;;;;;;6.28;3.63;;;4.00;99.90;;;;;;4917791;29;20387;-67
2021/01/06 10:28:35;;;;;;;6.82;3.80;;;4.00;99.90;;;;;;4914988;29;20056;-70
2021/01/06 10:31:10;;;;;;;7.35;3.58;;;4.00;99.90;;;;;;4908028;29;20048;-67
2021/01/06 10:34:06;;;;;;;6.72;3.55;;;3.90;99.90;;;;;;4918948;29;20060;-67
2021/01/06 10:37:17;;;;;;;8.52;3.92;;;3.90;99.90;;;;;;4918954;29;20056;-67
2021/01/06 10:39:50;;;;;;;6.53;3.55;;;3.90;99.90;;;;;;4884112;29;20107;-67
2021/01/06 10:42:21;;;;;;;6.30;3.45;;;3.90;99.90;;;;;;4886581;29;20595;-69
2021/01/06 10:44:59;;;;;;;6.18;3.30;;;3.90;99.90;;;;;;4884143;29;20054;-68
2021/01/06 10:47:37;;;;;;;6.38;3.40;;;3.90;99.90;;;;;;4886243;29;20045;-67
2021/01/06 10:50:24;;;;;;;6.25;3.50;;;3.90;99.90;;;;;;4887052;29;20051;-67
2021/01/06 10:53:02;;;;;;;6.57;3.17;;;3.90;99.90;;;;;;4901836;29;20055;-67
2021/01/06 10:56:06;;;;;;;6.55;3.50;;;4.00;99.90;;;;;;4918869;29;20138;-67
2021/01/06 10:58:57;;;;;;;6.32;2.85;;;4.00;99.90;;;;;;4879665;29;20143;-68
2021/01/06 11:01:26;;;;;;;5.82;3.10;;;4.00;99.90;;;;;;4879233;29;20462;-68
2021/01/06 11:04:19;;;;;;;6.88;3.53;;;4.00;99.90;;;;;;4909350;29;20052;-68
2021/01/06 11:07:01;;;;;;;5.30;2.92;;;4.00;99.90;;;;;;4920033;29;20146;-69
2021/01/06 11:09:42;;;;;;;4.95;2.80;;;4.00;99.90;;;;;;4921428;29;20370;-67
2021/01/06 11:12:28;;;;;;;6.85;2.90;;;4.00;99.90;;;;;;4921723;29;20043;-69
2021/01/06 11:15:23;;;;;;;5.53;2.88;;;4.00;99.90;;;;;;4920353;29;20062;-67
2021/01/06 11:18:17;;;;;;;5.13;3.05;;;4.00;99.90;;;;;;4919323;29;20054;-68
2021/01/06 11:20:48;;;;;;;4.72;2.88;;;4.00;99.90;;;;;;4918825;29;20051;-66
2021/01/06 11:23:44;;;;;;;6.63;3.00;;;4.10;99.90;;;;;;4919129;29;20399;-67
2021/01/06 11:26:21;;;;;;;6.35;3.10;;;4.10;99.90;;;;;;4918992;29;20544;-67
2021/01/06 11:29:06;;;;;;;6.25;2.92;;;4.10;99.90;;;;;;4918467;29;20051;-67
2021/01/06 14:18:01;;;;;;;2.97;1.48;;;4.40;99.90;;;;;;4922899;23;20515;-67
2021/01/06 14:20:48;;;;;;;3.40;1.60;;;4.30;99.90;;;;;;4894451;29;20055;-68
2021/01/06 14:23:28;;;;;;;4.05;1.42;;;4.40;99.90;;;;;;4888779;29;20559;-68
2021/01/06 14:26:03;;;;;;;2.70;1.48;;;4.30;99.90;;;;;;4896210;29;20064;-68
2021/01/06 14:28:48;;;;;;;3.88;1.60;;;4.30;99.90;;;;;;4894961;29;20410;-68
2021/01/06 14:31:34;;;;;;;3.22;1.75;;;4.30;99.90;;;;;;4899364;29;20060;-67
2021/01/06 14:34:24;;;;;;;2.95;1.52;;;4.30;99.90;;;;;;4898430;29;20057;-67
2021/01/06 14:37:08;;;;;;;3.03;1.60;;;4.30;99.90;;;;;;4898487;29;20468;-68
2021/01/06 14:40:03;;;;;;;3.17;1.45;;;4.30;99.90;;;;;;4903786;29;20074;-67
2021/01/06 14:42:37;;;;;;;3.75;1.40;;;4.30;99.90;;;;;;4900555;29;20082;-67
2021/01/06 14:45:38;;;;;;;2.95;1.48;;;4.30;99.90;;;;;;4900887;29;20503;-68
2021/01/06 14:48:26;;;;;;;2.58;1.23;;;4.30;99.90;;;;;;4905767;29;20442;-67
2021/01/06 14:51:24;;;;;;;4.75;1.40;;;4.30;99.90;;;;;;4895434;29;20203;-67
2021/01/06 14:54:00;;;;;;;2.78;1.33;;;4.30;99.90;;;;;;4899947;29;20087;-67
2021/01/06 14:56:52;;;;;;;3.17;1.70;;;4.20;99.90;;;;;;4901845;29;20526;-68
2021/01/06 14:59:37;;;;;;;3.55;1.88;;;4.20;99.90;;;;;;4897767;29;20106;-68
2021/01/06 15:02:25;;;;;;;1.98;1.52;;;4.20;99.90;;;;;;4894603;29;20059;-70
2021/01/06 15:05:08;;;;;;;2.95;1.80;;;4.10;99.90;;;;;;4899064;29;20061;-67
2021/01/06 15:07:59;;;;;;;3.72;1.40;;;4.10;99.90;;;;;;4895021;29;20140;-67
2021/01/06 15:10:29;;;;;;;3.15;1.83;;;4.10;99.90;;;;;;4898484;29;20041;-68
2021/01/06 15:13:09;;;;;;;3.80;1.40;;;4.10;99.90;;;;;;4908396;29;20060;-67
2021/01/06 15:15:38;;;;;;;2.05;1.10;;;4.10;99.90;;;;;;4899210;29;20136;-67
2021/01/06 15:18:18;;;;;;;3.00;1.55;;;4.10;99.90;;;;;;4881492;29;20135;-67
2021/01/06 15:20:53;;;;;;;3.78;1.30;;;4.10;99.90;;;;;;4902364;29;21289;-67
2021/01/06 15:23:33;;;;;;;2.25;1.50;;;4.10;99.90;;;;;;4897813;29;20037;-67
2021/01/06 15:26:04;;;;;;;2.65;1.52;;;4.10;99.90;;;;;;4898913;29;20059;-67
2021/01/06 15:28:48;;;;;;;1.65;1.20;;;4.10;99.90;;;;;;4898938;29;20563;-68
2021/01/06 15:31:30;;;;;;;2.55;1.30;;;4.10;99.90;;;;;;4889132;29;20125;-67
2021/01/06 15:34:03;;;;;;;2.30;1.23;;;4.10;99.90;;;;;;4895697;29;20049;-68
2021/01/06 15:36:39;;;;;;;2.28;1.17;;;4.10;99.90;;;;;;4896970;29;20154;-68
2021/01/06 15:39:13;;;;;;;2.83;1.10;;;4.10;99.90;;;;;;4898143;29;20053;-67
2021/01/06 15:41:40;;;;;;;2.97;1.65;;;4.10;99.90;;;;;;4897919;29;20096;-67
2021/01/06 15:44:15;;;;;;;3.10;1.23;;;4.10;99.90;;;;;;4897912;29;20603;-68
2021/01/06 15:46:42;;;;;;;2.45;1.20;;;4.00;99.90;;;;;;4898138;29;20113;-67
2021/01/06 15:49:26;;;;;;;;;;;4.10;99.90;;;;;;4899687;29;20408;-68
2021/01/06 15:52:11;;;;;;;1.88;1.10;;;4.00;99.90;;;;;;4894640;29;19927;-68
2021/01/06 15:54:38;;;;;;;2.60;1.20;;;4.00;99.90;;;;;;4897356;29;20404;-67
2021/01/06 15:57:11;;;;;;;4.32;1.70;;;4.00;99.90;;;;;;4900966;29;20052;-67
2021/01/06 15:59:38;;;;;;;2.90;1.27;;;4.00;99.90;;;;;;4898130;29;20076;-67
2021/01/06 16:02:24;;;;;;;3.22;1.30;;;4.00;99.90;;;;;;4902573;29;20128;-68
2021/01/06 16:04:50;;;;;;;2.05;1.00;;;4.00;99.90;;;;;;4903284;29;20471;-68
2021/01/06 16:07:23;;;;;;;2.92;1.33;;;4.00;99.90;;;;;;4905188;29;20057;-67
2021/01/06 16:09:49;;;;;;;2.65;1.40;;;4.00;99.90;;;;;;4899551;29;20435;-67
2021/01/06 16:12:22;;;;;;;2.20;1.10;;;4.00;99.90;;;;;;4902740;29;20047;-67
2021/01/06 16:14:57;;;;;;;2.55;1.30;;;3.90;99.90;;;;;;4898662;29;20045;-67
2021/01/06 16:17:35;;;;;;;3.10;1.23;;;3.90;99.90;;;;;;4903702;29;20092;-67
2021/01/06 16:20:20;;;;;;;1.95;0.93;;;3.90;99.90;;;;;;4896917;29;20135;-68
2021/01/06 16:22:47;;;;;;;3.20;1.50;;;3.90;99.90;;;;;;4905240;29;20087;-67
2021/01/06 16:25:29;;;;;;;5.40;1.92;;;3.90;99.90;;;;;;4897900;29;20511;-67
2021/01/06 16:27:59;;;;;;;4.95;2.08;;;3.90;99.90;;;;;;4898723;29;20147;-67
2021/01/06 16:30:40;;;;;;;3.35;1.70;;;3.90;99.90;;;;;;4904570;29;20057;-68
2021/01/06 16:33:20;;;;;;;3.33;1.63;;;3.90;99.90;;;;;;4901267;29;20116;-68
2021/01/06 16:36:21;;;;;;;4.00;1.52;;;3.90;99.90;;;;;;4897846;29;20131;-67
2021/01/06 16:38:47;;;;;;;3.78;1.48;;;3.90;99.90;;;;;;4887467;29;20127;-68
2021/01/06 16:41:36;;;;;;;3.08;1.40;;;3.90;99.90;;;;;;4897012;29;20326;-67